sensor_id;sensor_type;location;lat;lon;timestamp;P1;durP1;ratioP1;P2;durP2;ratioP2
71947;SDS011;63257;55.082;38.772;2022-09-27T00:00:24;12.90;;;5.90;;
71947;SDS011;63257;55.082;38.772;2022-09-27T00:02:50;13.38;;;5.40;;
71947;SDS011;63257;55.082;38.772;2022-09-27T00:05:16;13.07;;;6.10;;
71947;SDS011;63257;55.082;38.772;2022-09-27T00:07:43;11.45;;;5.47;;
71947;SDS011;63257;55.082;38.772;2022-09-27T00:10:09;11.18;;;5.25;;
71947;SDS011;63257;55.082;38.772;2022-09-27T00:12:36;12.60;;;4.80;;
71947;SDS011;63257;55.082;38.772;2022-09-27T00:15:03;10.18;;;4.78;;
71947;SDS011;63257;55.082;38.772;2022-09-27T00:17:29;10.75;;;4.78;;
71947;SDS011;63257;55.082;38.772;2022-09-27T00:19:57;10.57;;;4.90;;
71947;SDS011;63257;55.082;38.772;2022-09-27T00:22:24;11.80;;;4.38;;
71947;SDS011;63257;55.082;38.772;2022-09-27T00:24:50;9.38;;;4.35;;
71947;SDS011;63257;55.082;38.772;2022-09-27T00:27:17;8.37;;;3.57;;
71947;SDS011;63257;55.082;38.772;2022-09-27T00:29:44;8.98;;;3.70;;
71947;SDS011;63257;55.082;38.772;2022-09-27T00:32:11;10.07;;;4.70;;
71947;SDS011;63257;55.082;38.772;2022-09-27T00:34:39;10.03;;;4.40;;
71947;SDS011;63257;55.082;38.772;2022-09-27T00:37:06;9.73;;;4.38;;
71947;SDS011;63257;55.082;38.772;2022-09-27T00:39:32;10.75;;;4.45;;
71947;SDS011;63257;55.082;38.772;2022-09-27T00:41:59;8.65;;;4.13;;
71947;SDS011;63257;55.082;38.772;2022-09-27T00:49:47;9.68;;;4.43;;
71947;SDS011;63257;55.082;38.772;2022-09-27T00:55:10;11.50;;;6.35;;
71947;SDS011;63257;55.082;38.772;2022-09-27T00:57:41;10.65;;;5.78;;
71947;SDS011;63257;55.082;38.772;2022-09-27T01:00:09;10.23;;;4.03;;
71947;SDS011;63257;55.082;38.772;2022-09-27T01:02:37;8.98;;;4.35;;
71947;SDS011;63257;55.082;38.772;2022-09-27T01:05:06;11.25;;;5.18;;
71947;SDS011;63257;55.082;38.772;2022-09-27T01:07:33;11.98;;;5.22;;
71947;SDS011;63257;55.082;38.772;2022-09-27T01:09:59;13.30;;;5.43;;
71947;SDS011;63257;55.082;38.772;2022-09-27T01:15:16;15.70;;;5.00;;
71947;SDS011;63257;55.082;38.772;2022-09-27T01:31:51;58.25;;;9.43;;
71947;SDS011;63257;55.082;38.772;2022-09-27T01:34:25;76.20;;;8.48;;
71947;SDS011;63257;55.082;38.772;2022-09-27T01:40:01;22.92;;;6.15;;
71947;SDS011;63257;55.082;38.772;2022-09-27T01:42:58;16.73;;;6.20;;
71947;SDS011;63257;55.082;38.772;2022-09-27T01:45:49;11.75;;;5.07;;
71947;SDS011;63257;55.082;38.772;2022-09-27T01:48:40;12.55;;;4.97;;
71947;SDS011;63257;55.082;38.772;2022-09-27T01:51:27;19.87;;;5.90;;
71947;SDS011;63257;55.082;38.772;2022-09-27T01:54:00;12.85;;;5.40;;
71947;SDS011;63257;55.082;38.772;2022-09-27T01:56:47;12.70;;;5.78;;
71947;SDS011;63257;55.082;38.772;2022-09-27T01:59:25;11.95;;;5.32;;
71947;SDS011;63257;55.082;38.772;2022-09-27T02:02:07;13.82;;;5.70;;
71947;SDS011;63257;55.082;38.772;2022-09-27T02:04:57;12.70;;;5.72;;
71947;SDS011;63257;55.082;38.772;2022-09-27T02:07:47;12.20;;;5.50;;
71947;SDS011;63257;55.082;38.772;2022-09-27T02:10:20;13.97;;;7.83;;
71947;SDS011;63257;55.082;38.772;2022-09-27T02:13:11;13.30;;;6.68;;
71947;SDS011;63257;55.082;38.772;2022-09-27T02:18:28;11.70;;;5.13;;
71947;SDS011;63257;55.082;38.772;2022-09-27T02:21:02;11.43;;;5.20;;
71947;SDS011;63257;55.082;38.772;2022-09-27T02:23:39;14.75;;;5.47;;
71947;SDS011;63257;55.082;38.772;2022-09-27T02:28:57;13.95;;;6.05;;
71947;SDS011;63257;55.082;38.772;2022-09-27T02:31:34;11.77;;;5.40;;
71947;SDS011;63257;55.082;38.772;2022-09-27T02:34:10;11.88;;;5.30;;
71947;SDS011;63257;55.082;38.772;2022-09-27T02:36:41;12.27;;;5.13;;
71947;SDS011;63257;55.082;38.772;2022-09-27T02:39:07;11.43;;;4.72;;
71947;SDS011;63257;55.082;38.772;2022-09-27T02:41:34;8.60;;;4.30;;
71947;SDS011;63257;55.082;38.772;2022-09-27T02:44:01;9.10;;;4.83;;
71947;SDS011;63257;55.082;38.772;2022-09-27T02:49:42;10.07;;;4.00;;
71947;SDS011;63257;55.082;38.772;2022-09-27T03:00:33;11.03;;;4.80;;
71947;SDS011;63257;55.082;38.772;2022-09-27T03:03:37;15.15;;;5.45;;
71947;SDS011;63257;55.082;38.772;2022-09-27T03:06:10;13.40;;;5.50;;
71947;SDS011;63257;55.082;38.772;2022-09-27T03:08:41;13.50;;;5.70;;
71947;SDS011;63257;55.082;38.772;2022-09-27T03:11:08;14.73;;;6.03;;
71947;SDS011;63257;55.082;38.772;2022-09-27T03:13:36;16.15;;;6.68;;
71947;SDS011;63257;55.082;38.772;2022-09-27T03:16:05;14.38;;;6.18;;
71947;SDS011;63257;55.082;38.772;2022-09-27T03:18:48;14.03;;;5.90;;
71947;SDS011;63257;55.082;38.772;2022-09-27T03:21:32;13.98;;;5.55;;
71947;SDS011;63257;55.082;38.772;2022-09-27T03:23:58;15.75;;;6.25;;
71947;SDS011;63257;55.082;38.772;2022-09-27T03:26:26;15.73;;;6.03;;
71947;SDS011;63257;55.082;38.772;2022-09-27T03:28:52;16.38;;;6.50;;
71947;SDS011;63257;55.082;38.772;2022-09-27T03:31:18;13.53;;;5.93;;
71947;SDS011;63257;55.082;38.772;2022-09-27T03:33:56;13.50;;;5.47;;
71947;SDS011;63257;55.082;38.772;2022-09-27T03:36:23;14.68;;;5.47;;
71947;SDS011;63257;55.082;38.772;2022-09-27T03:38:48;10.73;;;4.80;;
71947;SDS011;63257;55.082;38.772;2022-09-27T03:41:17;16.27;;;5.07;;
71947;SDS011;63257;55.082;38.772;2022-09-27T03:43:42;14.73;;;6.13;;
71947;SDS011;63257;55.082;38.772;2022-09-27T03:46:09;15.63;;;6.23;;
71947;SDS011;63257;55.082;38.772;2022-09-27T03:48:35;13.93;;;6.20;;
71947;SDS011;63257;55.082;38.772;2022-09-27T03:51:01;16.00;;;6.57;;
71947;SDS011;63257;55.082;38.772;2022-09-27T03:53:28;16.80;;;7.30;;
71947;SDS011;63257;55.082;38.772;2022-09-27T03:55:55;18.63;;;6.72;;
71947;SDS011;63257;55.082;38.772;2022-09-27T03:58:21;14.27;;;6.57;;
71947;SDS011;63257;55.082;38.772;2022-09-27T04:00:47;14.23;;;6.47;;
71947;SDS011;63257;55.082;38.772;2022-09-27T04:03:13;14.27;;;6.18;;
71947;SDS011;63257;55.082;38.772;2022-09-27T04:06:02;14.57;;;6.70;;
71947;SDS011;63257;55.082;38.772;2022-09-27T04:08:35;17.37;;;7.43;;
71947;SDS011;63257;55.082;38.772;2022-09-27T04:11:03;15.20;;;6.32;;
71947;SDS011;63257;55.082;38.772;2022-09-27T04:13:29;18.45;;;7.25;;
71947;SDS011;63257;55.082;38.772;2022-09-27T04:15:55;16.23;;;6.93;;
71947;SDS011;63257;55.082;38.772;2022-09-27T04:18:47;16.85;;;7.03;;
71947;SDS011;63257;55.082;38.772;2022-09-27T04:21:34;16.88;;;7.40;;
71947;SDS011;63257;55.082;38.772;2022-09-27T04:23:59;18.00;;;7.20;;
71947;SDS011;63257;55.082;38.772;2022-09-27T04:26:25;19.70;;;7.55;;
71947;SDS011;63257;55.082;38.772;2022-09-27T04:28:59;20.65;;;8.43;;
71947;SDS011;63257;55.082;38.772;2022-09-27T04:31:25;17.88;;;7.68;;
71947;SDS011;63257;55.082;38.772;2022-09-27T04:34:14;18.98;;;7.70;;
71947;SDS011;63257;55.082;38.772;2022-09-27T04:36:40;16.80;;;8.07;;
71947;SDS011;63257;55.082;38.772;2022-09-27T04:39:15;24.23;;;8.18;;
71947;SDS011;63257;55.082;38.772;2022-09-27T04:41:43;20.20;;;8.60;;
71947;SDS011;63257;55.082;38.772;2022-09-27T04:44:10;24.33;;;9.23;;
71947;SDS011;63257;55.082;38.772;2022-09-27T04:46:37;19.90;;;9.15;;
71947;SDS011;63257;55.082;38.772;2022-09-27T04:49:03;23.83;;;9.47;;
71947;SDS011;63257;55.082;38.772;2022-09-27T04:51:32;29.63;;;12.70;;
71947;SDS011;63257;55.082;38.772;2022-09-27T04:53:58;30.95;;;14.40;;
71947;SDS011;63257;55.082;38.772;2022-09-27T04:56:29;29.73;;;9.97;;
71947;SDS011;63257;55.082;38.772;2022-09-27T04:58:55;28.17;;;13.07;;
71947;SDS011;63257;55.082;38.772;2022-09-27T05:01:20;19.97;;;7.83;;
71947;SDS011;63257;55.082;38.772;2022-09-27T05:04:05;16.95;;;6.53;;
71947;SDS011;63257;55.082;38.772;2022-09-27T05:06:34;17.05;;;7.28;;
71947;SDS011;63257;55.082;38.772;2022-09-27T05:09:06;19.23;;;8.07;;
71947;SDS011;63257;55.082;38.772;2022-09-27T05:11:43;19.60;;;7.60;;
71947;SDS011;63257;55.082;38.772;2022-09-27T05:14:14;19.88;;;7.82;;
71947;SDS011;63257;55.082;38.772;2022-09-27T05:16:54;17.98;;;6.50;;
71947;SDS011;63257;55.082;38.772;2022-09-27T05:19:38;18.42;;;6.93;;
71947;SDS011;63257;55.082;38.772;2022-09-27T05:22:20;20.85;;;6.45;;
71947;SDS011;63257;55.082;38.772;2022-09-27T05:24:46;20.10;;;7.10;;
71947;SDS011;63257;55.082;38.772;2022-09-27T05:27:13;18.10;;;7.17;;
71947;SDS011;63257;55.082;38.772;2022-09-27T05:29:45;19.73;;;6.95;;
71947;SDS011;63257;55.082;38.772;2022-09-27T05:32:25;25.13;;;8.02;;
71947;SDS011;63257;55.082;38.772;2022-09-27T05:35:06;23.10;;;8.07;;
71947;SDS011;63257;55.082;38.772;2022-09-27T05:37:33;21.92;;;8.38;;
71947;SDS011;63257;55.082;38.772;2022-09-27T05:39:59;26.33;;;9.15;;
71947;SDS011;63257;55.082;38.772;2022-09-27T05:42:25;35.80;;;10.10;;
71947;SDS011;63257;55.082;38.772;2022-09-27T05:44:51;29.52;;;10.95;;
71947;SDS011;63257;55.082;38.772;2022-09-27T05:47:17;29.50;;;12.52;;
71947;SDS011;63257;55.082;38.772;2022-09-27T05:49:43;31.95;;;11.20;;
71947;SDS011;63257;55.082;38.772;2022-09-27T05:52:10;30.65;;;11.77;;
71947;SDS011;63257;55.082;38.772;2022-09-27T05:54:37;37.47;;;14.38;;
71947;SDS011;63257;55.082;38.772;2022-09-27T05:57:03;39.22;;;14.35;;
71947;SDS011;63257;55.082;38.772;2022-09-27T05:59:41;33.43;;;15.73;;
71947;SDS011;63257;55.082;38.772;2022-09-27T06:02:19;36.97;;;15.55;;
71947;SDS011;63257;55.082;38.772;2022-09-27T06:05:03;30.88;;;12.77;;
71947;SDS011;63257;55.082;38.772;2022-09-27T06:07:47;27.13;;;11.20;;
71947;SDS011;63257;55.082;38.772;2022-09-27T06:10:19;24.25;;;8.85;;
71947;SDS011;63257;55.082;38.772;2022-09-27T06:12:46;21.33;;;9.43;;
71947;SDS011;63257;55.082;38.772;2022-09-27T06:15:47;20.42;;;9.65;;
71947;SDS011;63257;55.082;38.772;2022-09-27T06:18:15;30.47;;;9.70;;
71947;SDS011;63257;55.082;38.772;2022-09-27T06:20:44;27.98;;;9.13;;
71947;SDS011;63257;55.082;38.772;2022-09-27T06:23:15;21.52;;;8.07;;
71947;SDS011;63257;55.082;38.772;2022-09-27T06:25:44;18.48;;;9.32;;
71947;SDS011;63257;55.082;38.772;2022-09-27T06:28:24;18.25;;;9.23;;
71947;SDS011;63257;55.082;38.772;2022-09-27T06:30:54;24.25;;;12.93;;
71947;SDS011;63257;55.082;38.772;2022-09-27T06:33:28;21.02;;;12.43;;
71947;SDS011;63257;55.082;38.772;2022-09-27T06:35:59;25.70;;;15.90;;
71947;SDS011;63257;55.082;38.772;2022-09-27T06:38:27;24.13;;;14.35;;
71947;SDS011;63257;55.082;38.772;2022-09-27T06:41:05;20.55;;;11.93;;
71947;SDS011;63257;55.082;38.772;2022-09-27T06:43:57;21.10;;;10.38;;
71947;SDS011;63257;55.082;38.772;2022-09-27T06:46:41;19.40;;;9.97;;
71947;SDS011;63257;55.082;38.772;2022-09-27T06:49:10;17.98;;;10.55;;
71947;SDS011;63257;55.082;38.772;2022-09-27T06:51:38;27.05;;;10.80;;
71947;SDS011;63257;55.082;38.772;2022-09-27T06:54:04;22.23;;;10.45;;
71947;SDS011;63257;55.082;38.772;2022-09-27T06:56:30;21.53;;;10.37;;
71947;SDS011;63257;55.082;38.772;2022-09-27T06:58:56;28.38;;;11.80;;
71947;SDS011;63257;55.082;38.772;2022-09-27T07:01:40;21.80;;;11.70;;
71947;SDS011;63257;55.082;38.772;2022-09-27T07:04:25;25.27;;;12.10;;
71947;SDS011;63257;55.082;38.772;2022-09-27T07:06:56;26.98;;;13.05;;
71947;SDS011;63257;55.082;38.772;2022-09-27T07:09:25;29.35;;;13.88;;
71947;SDS011;63257;55.082;38.772;2022-09-27T07:11:51;33.77;;;14.83;;
71947;SDS011;63257;55.082;38.772;2022-09-27T07:14:19;33.30;;;16.33;;
71947;SDS011;63257;55.082;38.772;2022-09-27T07:16:46;31.00;;;15.00;;
71947;SDS011;63257;55.082;38.772;2022-09-27T07:19:13;28.02;;;14.10;;
71947;SDS011;63257;55.082;38.772;2022-09-27T07:21:40;32.85;;;15.10;;
71947;SDS011;63257;55.082;38.772;2022-09-27T07:24:06;22.70;;;11.10;;
71947;SDS011;63257;55.082;38.772;2022-09-27T07:26:32;20.02;;;9.57;;
71947;SDS011;63257;55.082;38.772;2022-09-27T07:28:58;20.57;;;8.67;;
71947;SDS011;63257;55.082;38.772;2022-09-27T07:31:27;20.83;;;8.10;;
71947;SDS011;63257;55.082;38.772;2022-09-27T07:33:54;14.48;;;7.22;;
71947;SDS011;63257;55.082;38.772;2022-09-27T07:36:20;19.73;;;7.75;;
71947;SDS011;63257;55.082;38.772;2022-09-27T07:38:46;13.83;;;6.30;;
71947;SDS011;63257;55.082;38.772;2022-09-27T07:41:14;14.05;;;5.97;;
71947;SDS011;63257;55.082;38.772;2022-09-27T07:43:42;16.92;;;6.32;;
71947;SDS011;63257;55.082;38.772;2022-09-27T07:46:11;14.93;;;6.50;;
71947;SDS011;63257;55.082;38.772;2022-09-27T07:48:55;16.43;;;5.60;;
71947;SDS011;63257;55.082;38.772;2022-09-27T07:51:48;14.77;;;5.40;;
71947;SDS011;63257;55.082;38.772;2022-09-27T07:54:33;16.30;;;6.45;;
71947;SDS011;63257;55.082;38.772;2022-09-27T07:57:04;14.45;;;5.28;;
71947;SDS011;63257;55.082;38.772;2022-09-27T07:59:31;12.93;;;5.72;;
71947;SDS011;63257;55.082;38.772;2022-09-27T08:01:57;12.13;;;4.80;;
71947;SDS011;63257;55.082;38.772;2022-09-27T08:04:23;10.60;;;4.20;;
71947;SDS011;63257;55.082;38.772;2022-09-27T08:06:49;15.70;;;5.45;;
71947;SDS011;63257;55.082;38.772;2022-09-27T08:09:15;12.73;;;4.37;;
71947;SDS011;63257;55.082;38.772;2022-09-27T08:11:42;11.35;;;4.40;;
71947;SDS011;63257;55.082;38.772;2022-09-27T08:14:11;10.98;;;5.13;;
71947;SDS011;63257;55.082;38.772;2022-09-27T08:16:42;10.98;;;4.60;;
71947;SDS011;63257;55.082;38.772;2022-09-27T08:19:26;9.65;;;4.53;;
71947;SDS011;63257;55.082;38.772;2022-09-27T08:22:19;9.07;;;3.80;;
71947;SDS011;63257;55.082;38.772;2022-09-27T08:24:53;14.35;;;5.20;;
71947;SDS011;63257;55.082;38.772;2022-09-27T08:27:37;16.55;;;5.03;;
71947;SDS011;63257;55.082;38.772;2022-09-27T08:30:16;12.63;;;5.22;;
71947;SDS011;63257;55.082;38.772;2022-09-27T08:32:43;15.93;;;5.63;;
71947;SDS011;63257;55.082;38.772;2022-09-27T08:35:09;13.40;;;6.30;;
71947;SDS011;63257;55.082;38.772;2022-09-27T08:37:36;10.48;;;4.43;;
71947;SDS011;63257;55.082;38.772;2022-09-27T08:40:04;13.95;;;5.25;;
71947;SDS011;63257;55.082;38.772;2022-09-27T08:45:27;17.20;;;6.82;;
71947;SDS011;63257;55.082;38.772;2022-09-27T08:47:57;11.57;;;5.47;;
71947;SDS011;63257;55.082;38.772;2022-09-27T08:50:30;18.63;;;6.57;;
71947;SDS011;63257;55.082;38.772;2022-09-27T08:53:06;13.77;;;5.63;;
71947;SDS011;63257;55.082;38.772;2022-09-27T08:55:43;10.90;;;4.90;;
71947;SDS011;63257;55.082;38.772;2022-09-27T09:01:24;7.13;;;3.73;;
71947;SDS011;63257;55.082;38.772;2022-09-27T09:04:20;10.30;;;4.50;;
71947;SDS011;63257;55.082;38.772;2022-09-27T09:09:49;9.32;;;5.03;;
71947;SDS011;63257;55.082;38.772;2022-09-27T09:22:24;11.73;;;5.18;;
71947;SDS011;63257;55.082;38.772;2022-09-27T09:33:40;15.57;;;6.38;;
71947;SDS011;63257;55.082;38.772;2022-09-27T09:39:22;15.40;;;5.75;;
71947;SDS011;63257;55.082;38.772;2022-09-27T09:44:28;11.53;;;4.10;;
71947;SDS011;63257;55.082;38.772;2022-09-27T09:47:03;13.02;;;4.28;;
71947;SDS011;63257;55.082;38.772;2022-09-27T09:49:51;12.02;;;4.63;;
71947;SDS011;63257;55.082;38.772;2022-09-27T09:52:22;11.93;;;4.25;;
71947;SDS011;63257;55.082;38.772;2022-09-27T09:57:36;11.63;;;4.93;;
71947;SDS011;63257;55.082;38.772;2022-09-27T10:00:25;14.65;;;5.43;;
71947;SDS011;63257;55.082;38.772;2022-09-27T10:02:53;15.38;;;5.43;;
71947;SDS011;63257;55.082;38.772;2022-09-27T10:05:23;11.63;;;4.93;;
71947;SDS011;63257;55.082;38.772;2022-09-27T10:08:04;13.63;;;5.63;;
71947;SDS011;63257;55.082;38.772;2022-09-27T10:10:36;12.50;;;5.00;;
71947;SDS011;63257;55.082;38.772;2022-09-27T10:13:34;15.05;;;6.25;;
71947;SDS011;63257;55.082;38.772;2022-09-27T10:16:03;14.40;;;6.63;;
71947;SDS011;63257;55.082;38.772;2022-09-27T10:18:34;12.30;;;5.82;;
71947;SDS011;63257;55.082;38.772;2022-09-27T10:21:14;16.83;;;6.82;;
71947;SDS011;63257;55.082;38.772;2022-09-27T10:27:08;12.65;;;6.45;;
71947;SDS011;63257;55.082;38.772;2022-09-27T10:29:36;13.00;;;6.15;;
71947;SDS011;63257;55.082;38.772;2022-09-27T10:32:17;11.82;;;5.50;;
71947;SDS011;63257;55.082;38.772;2022-09-27T10:34:48;12.93;;;5.15;;
71947;SDS011;63257;55.082;38.772;2022-09-27T10:37:16;12.47;;;5.80;;
71947;SDS011;63257;55.082;38.772;2022-09-27T10:40:01;17.70;;;4.97;;
71947;SDS011;63257;55.082;38.772;2022-09-27T10:46:28;11.50;;;4.85;;
71947;SDS011;63257;55.082;38.772;2022-09-27T10:52:28;11.63;;;4.97;;
71947;SDS011;63257;55.082;38.772;2022-09-27T10:54:55;10.32;;;4.63;;
71947;SDS011;63257;55.082;38.772;2022-09-27T10:57:25;8.52;;;3.90;;
71947;SDS011;63257;55.082;38.772;2022-09-27T11:00:02;7.45;;;3.35;;
71947;SDS011;63257;55.082;38.772;2022-09-27T11:02:33;8.17;;;2.97;;
71947;SDS011;63257;55.082;38.772;2022-09-27T11:05:14;8.70;;;3.63;;
71947;SDS011;63257;55.082;38.772;2022-09-27T11:07:57;8.98;;;3.28;;
71947;SDS011;63257;55.082;38.772;2022-09-27T11:10:59;8.85;;;3.40;;
71947;SDS011;63257;55.082;38.772;2022-09-27T11:40:01;10.57;;;3.53;;
71947;SDS011;63257;55.082;38.772;2022-09-27T11:48:20;11.00;;;4.10;;
71947;SDS011;63257;55.082;38.772;2022-09-27T11:59:40;12.87;;;4.80;;
71947;SDS011;63257;55.082;38.772;2022-09-27T12:02:00;10.73;;;4.85;;
71947;SDS011;63257;55.082;38.772;2022-09-27T12:07:49;16.55;;;9.15;;
71947;SDS011;63257;55.082;38.772;2022-09-27T12:10:21;18.05;;;5.88;;
71947;SDS011;63257;55.082;38.772;2022-09-27T12:12:52;11.90;;;5.30;;
71947;SDS011;63257;55.082;38.772;2022-09-27T12:15:25;10.90;;;4.53;;
71947;SDS011;63257;55.082;38.772;2022-09-27T12:21:08;10.48;;;6.50;;
71947;SDS011;63257;55.082;38.772;2022-09-27T12:23:38;15.13;;;5.47;;
71947;SDS011;63257;55.082;38.772;2022-09-27T12:37:44;17.80;;;5.38;;
71947;SDS011;63257;55.082;38.772;2022-09-27T12:40:34;12.37;;;4.67;;
71947;SDS011;63257;55.082;38.772;2022-09-27T12:43:16;16.63;;;4.63;;
71947;SDS011;63257;55.082;38.772;2022-09-27T12:48:55;14.60;;;4.50;;
71947;SDS011;63257;55.082;38.772;2022-09-27T12:51:50;10.73;;;4.30;;
71947;SDS011;63257;55.082;38.772;2022-09-27T12:54:34;11.30;;;4.33;;
71947;SDS011;63257;55.082;38.772;2022-09-27T13:00:02;13.40;;;4.40;;
71947;SDS011;63257;55.082;38.772;2022-09-27T13:06:18;8.18;;;3.55;;
71947;SDS011;63257;55.082;38.772;2022-09-27T13:09:10;9.90;;;3.90;;
71947;SDS011;63257;55.082;38.772;2022-09-27T13:14:28;11.25;;;4.32;;
71947;SDS011;63257;55.082;38.772;2022-09-27T13:16:59;12.48;;;4.25;;
71947;SDS011;63257;55.082;38.772;2022-09-27T13:22:02;8.40;;;3.30;;
71947;SDS011;63257;55.082;38.772;2022-09-27T13:24:38;9.68;;;3.50;;
71947;SDS011;63257;55.082;38.772;2022-09-27T13:32:34;14.27;;;4.25;;
71947;SDS011;63257;55.082;38.772;2022-09-27T13:37:46;8.63;;;3.90;;
71947;SDS011;63257;55.082;38.772;2022-09-27T13:43:03;12.55;;;3.97;;
71947;SDS011;63257;55.082;38.772;2022-09-27T13:45:53;10.68;;;3.78;;
71947;SDS011;63257;55.082;38.772;2022-09-27T13:48:32;12.83;;;3.63;;
71947;SDS011;63257;55.082;38.772;2022-09-27T13:51:22;9.75;;;3.10;;
71947;SDS011;63257;55.082;38.772;2022-09-27T13:54:01;12.40;;;3.97;;
71947;SDS011;63257;55.082;38.772;2022-09-27T14:02:12;12.03;;;3.17;;
71947;SDS011;63257;55.082;38.772;2022-09-27T14:04:50;13.30;;;3.40;;
71947;SDS011;63257;55.082;38.772;2022-09-27T14:07:18;12.70;;;3.35;;
71947;SDS011;63257;55.082;38.772;2022-09-27T14:09:53;14.02;;;3.70;;
71947;SDS011;63257;55.082;38.772;2022-09-27T14:12:25;12.93;;;4.07;;
71947;SDS011;63257;55.082;38.772;2022-09-27T14:14:57;10.23;;;3.40;;
71947;SDS011;63257;55.082;38.772;2022-09-27T14:17:25;16.90;;;4.35;;
71947;SDS011;63257;55.082;38.772;2022-09-27T14:19:51;11.18;;;3.95;;
71947;SDS011;63257;55.082;38.772;2022-09-27T14:22:21;13.43;;;4.30;;
71947;SDS011;63257;55.082;38.772;2022-09-27T14:24:57;12.35;;;3.85;;
71947;SDS011;63257;55.082;38.772;2022-09-27T14:27:50;12.27;;;3.67;;
71947;SDS011;63257;55.082;38.772;2022-09-27T14:30:42;12.70;;;4.18;;
71947;SDS011;63257;55.082;38.772;2022-09-27T14:33:35;13.35;;;4.25;;
71947;SDS011;63257;55.082;38.772;2022-09-27T14:36:14;15.07;;;4.38;;
71947;SDS011;63257;55.082;38.772;2022-09-27T14:39:00;12.88;;;4.28;;
71947;SDS011;63257;55.082;38.772;2022-09-27T14:41:35;9.53;;;4.20;;
71947;SDS011;63257;55.082;38.772;2022-09-27T14:44:02;12.82;;;4.00;;
71947;SDS011;63257;55.082;38.772;2022-09-27T14:46:30;9.13;;;3.50;;
71947;SDS011;63257;55.082;38.772;2022-09-27T14:48:56;8.52;;;3.83;;
71947;SDS011;63257;55.082;38.772;2022-09-27T14:51:30;7.65;;;3.65;;
71947;SDS011;63257;55.082;38.772;2022-09-27T14:53:58;7.07;;;3.53;;
71947;SDS011;63257;55.082;38.772;2022-09-27T14:56:31;10.90;;;4.88;;
71947;SDS011;63257;55.082;38.772;2022-09-27T14:59:03;9.00;;;4.35;;
71947;SDS011;63257;55.082;38.772;2022-09-27T15:01:35;7.85;;;3.75;;
71947;SDS011;63257;55.082;38.772;2022-09-27T15:04:04;8.25;;;4.70;;
71947;SDS011;63257;55.082;38.772;2022-09-27T15:06:36;8.87;;;4.57;;
71947;SDS011;63257;55.082;38.772;2022-09-27T15:09:03;8.05;;;4.20;;
71947;SDS011;63257;55.082;38.772;2022-09-27T15:11:31;9.65;;;4.68;;
71947;SDS011;63257;55.082;38.772;2022-09-27T15:13:59;9.57;;;4.18;;
71947;SDS011;63257;55.082;38.772;2022-09-27T15:16:27;9.85;;;4.40;;
71947;SDS011;63257;55.082;38.772;2022-09-27T15:21:31;7.78;;;4.18;;
71947;SDS011;63257;55.082;38.772;2022-09-27T15:23:59;7.50;;;4.15;;
71947;SDS011;63257;55.082;38.772;2022-09-27T15:26:45;8.93;;;4.15;;
71947;SDS011;63257;55.082;38.772;2022-09-27T15:29:17;8.23;;;4.20;;
71947;SDS011;63257;55.082;38.772;2022-09-27T15:31:56;7.57;;;4.50;;
71947;SDS011;63257;55.082;38.772;2022-09-27T15:34:30;8.50;;;4.80;;
71947;SDS011;63257;55.082;38.772;2022-09-27T15:37:02;8.45;;;4.47;;
71947;SDS011;63257;55.082;38.772;2022-09-27T15:52:40;9.77;;;5.18;;
71947;SDS011;63257;55.082;38.772;2022-09-27T15:55:11;8.48;;;4.88;;
71947;SDS011;63257;55.082;38.772;2022-09-27T15:57:38;10.83;;;5.73;;
71947;SDS011;63257;55.082;38.772;2022-09-27T16:00:05;10.57;;;5.88;;
71947;SDS011;63257;55.082;38.772;2022-09-27T16:02:37;9.52;;;5.40;;
71947;SDS011;63257;55.082;38.772;2022-09-27T16:05:03;13.05;;;6.25;;
71947;SDS011;63257;55.082;38.772;2022-09-27T16:07:29;11.07;;;5.10;;
71947;SDS011;63257;55.082;38.772;2022-09-27T16:09:55;9.43;;;5.45;;
71947;SDS011;63257;55.082;38.772;2022-09-27T16:12:22;10.63;;;5.38;;
71947;SDS011;63257;55.082;38.772;2022-09-27T16:14:48;10.23;;;5.38;;
71947;SDS011;63257;55.082;38.772;2022-09-27T16:17:14;13.30;;;5.40;;
71947;SDS011;63257;55.082;38.772;2022-09-27T16:19:40;14.35;;;5.30;;
71947;SDS011;63257;55.082;38.772;2022-09-27T16:22:05;13.00;;;5.28;;
71947;SDS011;63257;55.082;38.772;2022-09-27T16:24:33;9.98;;;5.00;;
71947;SDS011;63257;55.082;38.772;2022-09-27T16:26:58;10.27;;;5.33;;
71947;SDS011;63257;55.082;38.772;2022-09-27T16:29:24;11.95;;;5.38;;
71947;SDS011;63257;55.082;38.772;2022-09-27T16:31:51;11.52;;;5.65;;
71947;SDS011;63257;55.082;38.772;2022-09-27T16:34:18;10.35;;;6.20;;
71947;SDS011;63257;55.082;38.772;2022-09-27T16:36:44;10.40;;;5.33;;
71947;SDS011;63257;55.082;38.772;2022-09-27T16:39:10;9.48;;;5.20;;
71947;SDS011;63257;55.082;38.772;2022-09-27T16:41:38;9.68;;;5.55;;
71947;SDS011;63257;55.082;38.772;2022-09-27T16:44:10;12.02;;;5.25;;
71947;SDS011;63257;55.082;38.772;2022-09-27T16:46:39;12.87;;;6.97;;
71947;SDS011;63257;55.082;38.772;2022-09-27T16:49:10;9.90;;;5.45;;
71947;SDS011;63257;55.082;38.772;2022-09-27T16:51:55;9.60;;;5.13;;
71947;SDS011;63257;55.082;38.772;2022-09-27T16:54:24;11.10;;;5.40;;
71947;SDS011;63257;55.082;38.772;2022-09-27T16:56:54;10.55;;;5.80;;
71947;SDS011;63257;55.082;38.772;2022-09-27T16:59:20;10.30;;;5.33;;
71947;SDS011;63257;55.082;38.772;2022-09-27T17:01:49;11.90;;;5.55;;
71947;SDS011;63257;55.082;38.772;2022-09-27T17:04:15;9.20;;;5.30;;
71947;SDS011;63257;55.082;38.772;2022-09-27T17:06:41;18.13;;;5.72;;
71947;SDS011;63257;55.082;38.772;2022-09-27T17:09:07;10.13;;;5.73;;
71947;SDS011;63257;55.082;38.772;2022-09-27T17:11:33;13.15;;;6.97;;
71947;SDS011;63257;55.082;38.772;2022-09-27T17:14:02;11.63;;;6.80;;
71947;SDS011;63257;55.082;38.772;2022-09-27T17:16:28;12.07;;;6.53;;
71947;SDS011;63257;55.082;38.772;2022-09-27T17:18:54;10.43;;;6.13;;
71947;SDS011;63257;55.082;38.772;2022-09-27T17:21:20;12.45;;;6.45;;
71947;SDS011;63257;55.082;38.772;2022-09-27T17:23:46;12.07;;;5.70;;
71947;SDS011;63257;55.082;38.772;2022-09-27T17:26:19;10.70;;;5.68;;
71947;SDS011;63257;55.082;38.772;2022-09-27T17:28:47;12.13;;;5.78;;
71947;SDS011;63257;55.082;38.772;2022-09-27T17:31:15;11.45;;;6.25;;
71947;SDS011;63257;55.082;38.772;2022-09-27T17:33:43;11.50;;;6.00;;
71947;SDS011;63257;55.082;38.772;2022-09-27T17:36:18;10.32;;;5.28;;
71947;SDS011;63257;55.082;38.772;2022-09-27T17:38:47;9.63;;;5.20;;
71947;SDS011;63257;55.082;38.772;2022-09-27T17:41:15;8.80;;;4.80;;
71947;SDS011;63257;55.082;38.772;2022-09-27T17:43:44;13.52;;;5.68;;
71947;SDS011;63257;55.082;38.772;2022-09-27T17:46:18;12.20;;;6.40;;
71947;SDS011;63257;55.082;38.772;2022-09-27T17:48:48;9.85;;;5.10;;
71947;SDS011;63257;55.082;38.772;2022-09-27T17:51:35;10.80;;;4.95;;
71947;SDS011;63257;55.082;38.772;2022-09-27T17:54:04;10.20;;;5.30;;
71947;SDS011;63257;55.082;38.772;2022-09-27T17:56:35;11.25;;;5.20;;
71947;SDS011;63257;55.082;38.772;2022-09-27T17:59:02;9.97;;;5.40;;
71947;SDS011;63257;55.082;38.772;2022-09-27T18:01:28;10.43;;;5.40;;
71947;SDS011;63257;55.082;38.772;2022-09-27T18:03:56;11.23;;;5.68;;
71947;SDS011;63257;55.082;38.772;2022-09-27T18:06:25;9.90;;;5.63;;
71947;SDS011;63257;55.082;38.772;2022-09-27T18:08:52;10.23;;;5.90;;
71947;SDS011;63257;55.082;38.772;2022-09-27T18:11:19;10.80;;;5.85;;